createdAt,value
2022-12-06T00:01:11.955Z,5.40
2022-12-06T00:03:39.686Z,6.82
2022-12-06T00:06:16.161Z,6.70
2022-12-06T00:08:43.709Z,6.95
2022-12-06T00:11:13.527Z,6.57
2022-12-06T00:13:41.031Z,5.88
2022-12-06T00:16:13.095Z,5.95
2022-12-06T00:18:41.368Z,7.68
2022-12-06T00:21:13.426Z,7.00
2022-12-06T00:23:48.229Z,8.02
2022-12-06T00:26:15.685Z,6.72
2022-12-06T00:28:43.014Z,6.00
2022-12-06T00:31:14.650Z,5.70
2022-12-06T00:33:41.386Z,6.78
2022-12-06T00:36:11.559Z,6.68
2022-12-06T00:41:13.119Z,7.93
2022-12-06T00:43:40.193Z,6.28
2022-12-06T00:46:09.154Z,7.05
2022-12-06T00:48:35.950Z,6.82
2022-12-06T00:51:02.721Z,8.10
2022-12-06T00:53:29.434Z,6.40
2022-12-06T00:55:56.233Z,6.43
2022-12-06T00:58:23.398Z,7.28
2022-12-06T01:00:50.207Z,6.20
2022-12-06T01:03:17.068Z,8.93
2022-12-06T01:05:49.673Z,8.13
2022-12-06T01:08:17.686Z,7.20
2022-12-06T01:10:53.630Z,6.47
2022-12-06T01:13:20.504Z,6.63
2022-12-06T01:15:47.280Z,6.63
2022-12-06T01:18:14.247Z,7.00
2022-12-06T01:20:41.091Z,6.60
2022-12-06T01:23:07.862Z,7.97
2022-12-06T01:25:36.402Z,6.40
2022-12-06T01:28:03.615Z,6.63
2022-12-06T01:30:30.533Z,7.90
2022-12-06T01:32:57.277Z,7.88
2022-12-06T01:35:23.989Z,7.70
2022-12-06T01:37:50.718Z,8.65
2022-12-06T01:40:17.498Z,8.07
2022-12-06T01:42:44.219Z,11.30
2022-12-06T01:45:11.265Z,7.40
2022-12-06T01:47:41.507Z,8.90
2022-12-06T01:53:11.215Z,9.50
2022-12-06T01:55:40.100Z,10.10
2022-12-06T01:58:25.062Z,7.95
2022-12-06T02:00:52.069Z,8.40
2022-12-06T02:03:25.729Z,8.45
2022-12-06T02:05:52.958Z,7.47
2022-12-06T02:08:20.449Z,8.00
2022-12-06T02:10:47.370Z,14.20
2022-12-06T02:13:14.435Z,11.40
2022-12-06T02:16:07.886Z,11.18
2022-12-06T02:18:40.307Z,9.75
2022-12-06T02:21:30.911Z,11.00
2022-12-06T02:24:31.199Z,10.50
2022-12-06T02:27:09.639Z,10.60
2022-12-06T02:29:51.330Z,10.93
2022-12-06T02:32:39.723Z,14.15
2022-12-06T02:35:25.808Z,10.65
2022-12-06T02:38:16.891Z,13.27
2022-12-06T02:40:54.077Z,11.65
2022-12-06T02:43:27.277Z,13.50
2022-12-06T02:45:59.398Z,13.82
2022-12-06T02:48:26.842Z,13.82
2022-12-06T02:51:00.878Z,13.23
2022-12-06T02:53:30.881Z,12.43
2022-12-06T02:55:58.116Z,14.45
2022-12-06T02:58:24.801Z,14.38
2022-12-06T03:00:59.588Z,12.15
2022-12-06T03:03:32.410Z,13.57
2022-12-06T03:06:02.244Z,11.95
2022-12-06T03:08:31.756Z,11.43
2022-12-06T03:11:02.405Z,13.27
2022-12-06T03:13:58.578Z,12.88
2022-12-06T03:16:30.875Z,12.35
2022-12-06T03:19:20.619Z,11.95
2022-12-06T03:22:11.764Z,11.02
2022-12-06T03:24:41.528Z,9.27
2022-12-06T03:27:12.975Z,11.43
2022-12-06T03:29:43.375Z,11.93
2022-12-06T03:32:13.626Z,12.15
2022-12-06T03:34:44.172Z,10.38
2022-12-06T03:37:15.314Z,10.85
2022-12-06T03:39:51.914Z,10.38
2022-12-06T03:42:19.404Z,10.27
2022-12-06T03:44:47.487Z,10.82
2022-12-06T03:47:23.736Z,10.35
2022-12-06T03:50:08.008Z,11.18
2022-12-06T03:52:34.831Z,10.60
2022-12-06T03:55:02.008Z,9.63
2022-12-06T03:57:28.711Z,9.02
2022-12-06T03:59:55.389Z,13.07
2022-12-06T04:02:22.086Z,12.48
2022-12-06T04:04:49.800Z,13.63
2022-12-06T04:07:21.297Z,11.00
2022-12-06T04:10:03.595Z,12.32
2022-12-06T04:12:51.010Z,15.40
2022-12-06T04:15:19.062Z,13.40
2022-12-06T04:18:04.616Z,13.30
2022-12-06T04:20:51.006Z,13.60
2022-12-06T04:23:21.557Z,10.93
2022-12-06T04:25:48.302Z,11.25
2022-12-06T04:28:33.455Z,11.07
2022-12-06T04:31:22.331Z,10.35
2022-12-06T04:34:08.862Z,11.65
2022-12-06T04:36:55.316Z,11.52
2022-12-06T04:39:22.038Z,12.65
2022-12-06T04:42:08.221Z,9.73
2022-12-06T04:44:34.954Z,10.55
2022-12-06T04:47:02.096Z,8.80
2022-12-06T04:49:28.840Z,12.00
2022-12-06T04:51:56.320Z,9.95
2022-12-06T04:54:23.741Z,12.18
2022-12-06T04:56:50.502Z,10.70
2022-12-06T04:59:17.285Z,10.68
2022-12-06T05:01:44.141Z,12.45
2022-12-06T05:04:10.953Z,9.98
2022-12-06T05:06:37.727Z,11.80
2022-12-06T05:09:04.892Z,9.75
2022-12-06T05:11:32.033Z,11.00
2022-12-06T05:13:59.431Z,10.32
2022-12-06T05:16:26.232Z,10.60
2022-12-06T05:18:53.238Z,11.68
2022-12-06T05:21:22.760Z,13.07
2022-12-06T05:23:49.918Z,15.63
2022-12-06T05:26:19.319Z,13.52
2022-12-06T05:28:46.906Z,14.35
2022-12-06T05:31:14.247Z,13.10
2022-12-06T05:33:41.366Z,12.95
2022-12-06T05:36:09.933Z,17.67
2022-12-06T05:38:36.709Z,20.75
2022-12-06T05:41:05.148Z,22.42
2022-12-06T05:43:32.374Z,17.80
2022-12-06T05:45:59.655Z,25.20
2022-12-06T05:48:26.714Z,21.23
2022-12-06T05:50:53.842Z,19.98
2022-12-06T05:53:21.194Z,23.27
2022-12-06T05:55:48.318Z,20.33
2022-12-06T05:58:15.587Z,24.25
2022-12-06T06:00:45.498Z,21.35
2022-12-06T06:03:12.293Z,26.67
2022-12-06T06:05:49.866Z,27.23
2022-12-06T06:08:17.919Z,25.80
2022-12-06T06:10:45.118Z,26.67
2022-12-06T06:13:11.991Z,25.67
2022-12-06T06:15:38.854Z,26.77
2022-12-06T06:18:05.743Z,21.55
2022-12-06T06:20:32.465Z,20.77
2022-12-06T06:22:59.184Z,19.65
2022-12-06T06:25:26.086Z,20.73
2022-12-06T06:27:53.462Z,21.05
2022-12-06T06:30:20.299Z,21.52
2022-12-06T06:32:47.075Z,20.73
2022-12-06T06:35:13.795Z,22.15
2022-12-06T06:37:40.513Z,20.60
2022-12-06T06:40:07.903Z,25.17
2022-12-06T06:42:34.625Z,22.73
2022-12-06T06:45:01.458Z,25.73
2022-12-06T06:47:28.126Z,25.70
2022-12-06T06:49:54.826Z,26.08
2022-12-06T06:52:21.506Z,26.10
2022-12-06T06:54:48.199Z,23.25
2022-12-06T06:57:17.811Z,26.13
2022-12-06T06:59:45.901Z,23.65
2022-12-06T07:02:13.934Z,24.77
2022-12-06T07:04:41.186Z,23.52
2022-12-06T07:07:07.952Z,23.60
2022-12-06T07:09:35.114Z,22.95
2022-12-06T07:12:01.972Z,21.83
2022-12-06T07:14:28.934Z,21.38
2022-12-06T07:16:55.801Z,22.10
2022-12-06T07:19:22.703Z,21.02
2022-12-06T07:21:49.457Z,19.10
2022-12-06T07:24:16.233Z,23.33
2022-12-06T07:26:42.981Z,22.13
2022-12-06T07:29:09.742Z,21.77
2022-12-06T07:31:36.509Z,28.58
2022-12-06T07:34:03.647Z,22.67
2022-12-06T07:36:31.738Z,26.90
2022-12-06T07:39:00.196Z,24.95
2022-12-06T07:41:47.375Z,26.20
2022-12-06T07:44:52.651Z,25.50
2022-12-06T07:47:21.167Z,27.05
2022-12-06T07:49:48.063Z,24.45
2022-12-06T07:52:14.930Z,26.48
2022-12-06T07:54:41.623Z,25.92
2022-12-06T07:57:08.434Z,23.85
2022-12-06T07:59:35.677Z,25.02
2022-12-06T08:02:02.421Z,20.95
2022-12-06T08:04:29.226Z,24.23
2022-12-06T08:09:24.471Z,28.42
2022-12-06T08:11:51.290Z,29.67
2022-12-06T08:14:18.003Z,28.42
2022-12-06T08:16:44.725Z,29.73
2022-12-06T08:19:11.489Z,31.67
2022-12-06T08:21:38.187Z,32.30
2022-12-06T08:24:05.224Z,43.03
2022-12-06T08:26:31.942Z,46.58
2022-12-06T08:29:01.115Z,53.33
2022-12-06T08:31:29.503Z,53.35
2022-12-06T08:33:56.593Z,36.58
2022-12-06T08:36:24.409Z,29.10
2022-12-06T08:38:52.153Z,20.40
2022-12-06T08:41:38.756Z,16.55
2022-12-06T08:44:06.096Z,18.15
2022-12-06T08:46:34.399Z,16.70
2022-12-06T08:49:01.754Z,15.63
2022-12-06T08:51:29.131Z,16.02
2022-12-06T08:53:56.880Z,15.63
2022-12-06T08:56:24.284Z,17.08
2022-12-06T08:58:52.852Z,13.95
2022-12-06T09:01:23.032Z,15.57
2022-12-06T09:03:49.887Z,15.07
2022-12-06T09:06:17.627Z,14.48
2022-12-06T09:08:45.840Z,13.98
2022-12-06T09:11:13.475Z,14.75
2022-12-06T09:13:40.310Z,13.75
2022-12-06T09:16:13.447Z,13.50
2022-12-06T09:18:40.357Z,13.55
2022-12-06T09:21:08.686Z,14.73
2022-12-06T09:23:36.405Z,15.48
2022-12-06T09:26:04.869Z,16.67
2022-12-06T09:28:33.821Z,14.95
2022-12-06T09:31:01.626Z,12.85
2022-12-06T09:33:28.345Z,12.48
2022-12-06T09:35:56.028Z,14.88
2022-12-06T09:38:26.975Z,12.88
2022-12-06T09:41:13.250Z,13.55
2022-12-06T09:43:58.199Z,14.68
2022-12-06T09:46:40.926Z,16.48
2022-12-06T09:49:39.758Z,15.43
2022-12-06T09:52:44.870Z,13.57
2022-12-06T09:55:30.451Z,13.90
2022-12-06T09:58:08.940Z,12.90
2022-12-06T10:00:45.442Z,13.65
2022-12-06T10:03:34.986Z,13.52
2022-12-06T10:06:03.993Z,12.40
2022-12-06T10:08:33.961Z,12.20
2022-12-06T10:11:30.043Z,10.93
2022-12-06T10:14:08.694Z,11.07
2022-12-06T10:16:44.824Z,12.75
2022-12-06T10:19:26.683Z,12.93
2022-12-06T10:22:19.578Z,12.20
2022-12-06T10:24:52.223Z,12.57
2022-12-06T10:27:40.103Z,10.65
2022-12-06T10:30:13.522Z,11.00
2022-12-06T10:33:16.870Z,10.80
2022-12-06T10:35:53.845Z,11.68
2022-12-06T10:38:46.548Z,10.65
2022-12-06T10:41:23.274Z,9.05
2022-12-06T10:44:14.671Z,7.45
2022-12-06T10:47:05.292Z,8.93
2022-12-06T10:49:44.197Z,9.18
2022-12-06T10:52:17.281Z,8.80
2022-12-06T10:55:03.616Z,8.43
2022-12-06T10:57:57.649Z,8.35
2022-12-06T11:00:27.324Z,8.00
2022-12-06T11:03:28.804Z,7.93
2022-12-06T11:06:05.461Z,9.10
2022-12-06T11:08:43.889Z,8.88
2022-12-06T11:11:24.290Z,8.20
2022-12-06T11:14:00.834Z,7.68
2022-12-06T11:16:37.022Z,5.82
2022-12-06T11:19:18.660Z,6.88
2022-12-06T11:22:03.454Z,7.40
2022-12-06T11:24:40.759Z,7.07
2022-12-06T11:27:25.942Z,6.78
2022-12-06T11:29:53.348Z,6.57
2022-12-06T11:32:20.316Z,7.38
2022-12-06T11:34:51.018Z,6.97
2022-12-06T11:37:21.311Z,6.88
2022-12-06T11:42:26.919Z,6.10
2022-12-06T11:45:27.876Z,4.82
2022-12-06T11:47:56.827Z,5.88
2022-12-06T11:50:28.206Z,5.53
2022-12-06T11:53:03.908Z,5.13
2022-12-06T11:55:36.715Z,5.57
2022-12-06T11:58:25.157Z,7.60
2022-12-06T12:01:10.573Z,7.32
2022-12-06T12:03:39.360Z,7.78
2022-12-06T12:06:25.089Z,7.45
2022-12-06T12:09:01.485Z,10.13
2022-12-06T12:11:33.674Z,12.20
2022-12-06T12:14:14.372Z,13.20
2022-12-06T12:16:48.337Z,11.57
2022-12-06T12:19:41.106Z,14.27
2022-12-06T12:22:29.234Z,16.35
2022-12-06T12:25:18.290Z,9.75
2022-12-06T12:27:47.813Z,9.85
2022-12-06T12:30:32.806Z,10.02
2022-12-06T12:33:05.730Z,11.45
2022-12-06T12:35:35.222Z,8.45
2022-12-06T12:38:11.079Z,6.90
2022-12-06T12:40:39.521Z,9.15
2022-12-06T12:43:19.299Z,6.70
2022-12-06T12:46:08.154Z,6.40
2022-12-06T12:48:35.719Z,7.78
2022-12-06T12:51:35.654Z,7.18
2022-12-06T12:54:19.303Z,7.28
2022-12-06T12:56:46.002Z,6.95
2022-12-06T12:59:16.825Z,7.35
2022-12-06T13:02:02.062Z,6.80
2022-12-06T13:04:38.144Z,7.68
2022-12-06T13:07:10.259Z,9.35
2022-12-06T13:09:43.657Z,8.75
2022-12-06T13:12:20.535Z,8.88
2022-12-06T13:15:04.277Z,8.85
2022-12-06T13:17:35.713Z,9.77
2022-12-06T13:20:16.874Z,6.88
2022-12-06T13:22:45.499Z,8.75
2022-12-06T13:25:12.386Z,7.50
2022-12-06T13:27:50.436Z,8.20
2022-12-06T13:30:20.719Z,8.10
2022-12-06T13:35:38.085Z,8.15
2022-12-06T13:38:26.124Z,9.48
2022-12-06T13:40:57.411Z,7.43
2022-12-06T13:43:24.065Z,7.20
2022-12-06T13:46:19.812Z,7.15
2022-12-06T13:48:57.467Z,5.97
2022-12-06T13:51:37.741Z,5.82
2022-12-06T13:56:38.917Z,7.75
2022-12-06T13:59:25.539Z,6.53
2022-12-06T14:01:56.926Z,5.97
2022-12-06T14:06:56.995Z,6.47
2022-12-06T14:11:53.020Z,5.32
2022-12-06T14:14:25.079Z,5.38
2022-12-06T14:17:52.541Z,5.35
2022-12-06T14:20:25.023Z,6.28
2022-12-06T14:22:52.015Z,7.57
2022-12-06T14:25:24.539Z,4.95
2022-12-06T14:28:00.946Z,3.97
2022-12-06T14:30:27.719Z,6.95
2022-12-06T14:32:56.544Z,5.65
2022-12-06T14:35:36.076Z,5.25
2022-12-06T14:38:22.657Z,4.50
2022-12-06T14:41:08.951Z,5.05
2022-12-06T14:43:35.874Z,4.97
2022-12-06T14:46:06.552Z,5.53
2022-12-06T14:48:52.652Z,4.15
2022-12-06T14:51:27.593Z,5.20
2022-12-06T14:53:54.314Z,5.30
2022-12-06T14:56:32.717Z,7.72
2022-12-06T14:59:01.855Z,5.80
2022-12-06T15:01:31.897Z,7.55
2022-12-06T15:04:09.228Z,5.95
2022-12-06T15:06:37.772Z,5.63
2022-12-06T15:09:10.584Z,4.95
2022-12-06T15:11:58.344Z,4.88
2022-12-06T15:14:25.122Z,4.10
2022-12-06T15:17:10.204Z,4.03
2022-12-06T15:19:40.199Z,5.70
2022-12-06T15:22:24.925Z,8.07
2022-12-06T15:24:55.543Z,5.13
2022-12-06T15:27:23.898Z,4.70
2022-12-06T15:29:50.744Z,5.63
2022-12-06T15:32:19.422Z,5.40
2022-12-06T15:34:46.545Z,6.47
2022-12-06T15:37:38.737Z,5.35
2022-12-06T15:40:03.293Z,8.52
2022-12-06T15:42:30.246Z,8.80
2022-12-06T15:44:56.959Z,8.23
2022-12-06T15:47:23.686Z,8.18
2022-12-06T15:49:52.408Z,6.30
2022-12-06T15:52:24.512Z,8.77
2022-12-06T15:54:51.931Z,6.85
2022-12-06T15:57:18.628Z,7.45
2022-12-06T15:59:45.451Z,8.18
2022-12-06T16:02:15.478Z,6.28
2022-12-06T16:07:10.661Z,9.60
2022-12-06T16:09:37.757Z,9.98
2022-12-06T16:12:04.919Z,10.77
2022-12-06T16:14:31.618Z,8.73
2022-12-06T16:16:58.330Z,8.85
2022-12-06T16:19:45.038Z,9.32
2022-12-06T16:22:11.739Z,9.23
2022-12-06T16:24:38.477Z,8.50
2022-12-06T16:27:05.369Z,11.15
2022-12-06T16:29:32.712Z,11.18
2022-12-06T16:31:59.465Z,9.88
2022-12-06T16:34:28.499Z,16.25
2022-12-06T16:37:01.828Z,12.13
2022-12-06T16:39:30.777Z,10.23
2022-12-06T16:41:57.701Z,10.95
2022-12-06T16:44:24.630Z,10.65
2022-12-06T16:46:51.952Z,11.20
2022-12-06T16:49:53.095Z,9.27
2022-12-06T16:52:09.967Z,10.70
2022-12-06T16:54:40.764Z,10.40
2022-12-06T16:57:07.519Z,8.90
2022-12-06T16:59:35.186Z,9.63
2022-12-06T17:02:02.137Z,10.93
2022-12-06T17:04:31.468Z,12.95
2022-12-06T17:06:58.146Z,9.50
2022-12-06T17:09:24.915Z,9.20
2022-12-06T17:12:04.286Z,10.20
2022-12-06T17:14:31.055Z,11.93
2022-12-06T17:17:00.415Z,10.18
2022-12-06T17:19:28.374Z,8.83
2022-12-06T17:21:55.535Z,8.93
2022-12-06T17:24:24.730Z,8.95
2022-12-06T17:26:54.047Z,10.23
2022-12-06T17:29:21.400Z,8.98
2022-12-06T17:31:48.248Z,9.15
2022-12-06T17:34:16.514Z,9.88
2022-12-06T17:36:43.951Z,9.57
2022-12-06T17:39:13.857Z,11.38
2022-12-06T17:41:59.228Z,11.27
2022-12-06T17:44:26.578Z,10.52
2022-12-06T17:46:53.608Z,11.05
2022-12-06T17:49:23.246Z,10.10
2022-12-06T17:51:50.507Z,11.30
2022-12-06T17:54:17.706Z,10.13
2022-12-06T17:56:55.992Z,10.43
2022-12-06T17:59:25.227Z,12.70
2022-12-06T18:04:40.595Z,12.77
2022-12-06T18:07:07.362Z,13.13
2022-12-06T18:09:34.134Z,9.30
2022-12-06T18:12:01.237Z,13.60
2022-12-06T18:14:28.262Z,10.75
2022-12-06T18:16:55.632Z,11.27
2022-12-06T18:19:22.537Z,13.60
2022-12-06T18:21:50.818Z,10.77
2022-12-06T18:24:23.255Z,12.10
2022-12-06T18:26:52.371Z,12.77
2022-12-06T18:29:21.953Z,10.38
2022-12-06T18:31:49.212Z,10.50
2022-12-06T18:34:16.383Z,10.98
2022-12-06T18:36:43.324Z,11.27
2022-12-06T18:39:15.252Z,9.98
2022-12-06T18:41:43.101Z,10.75
2022-12-06T18:44:10.856Z,11.23
2022-12-06T18:46:42.285Z,11.93
2022-12-06T18:49:11.292Z,11.70
2022-12-06T18:51:41.209Z,9.10
2022-12-06T18:54:10.395Z,10.18
2022-12-06T18:56:37.121Z,11.98
2022-12-06T18:59:06.367Z,10.07
2022-12-06T19:01:35.688Z,8.65
2022-12-06T19:04:04.330Z,10.73
2022-12-06T19:06:33.608Z,11.32
2022-12-06T19:09:04.432Z,13.55
2022-12-06T19:11:31.200Z,11.68
2022-12-06T19:13:59.835Z,11.07
2022-12-06T19:16:47.673Z,12.40
2022-12-06T19:19:20.298Z,12.63
2022-12-06T19:21:47.971Z,12.05
2022-12-06T19:24:17.835Z,13.05
2022-12-06T19:26:44.968Z,11.80
2022-12-06T19:29:12.152Z,11.27
2022-12-06T19:31:39.056Z,11.23
2022-12-06T19:34:05.789Z,12.10
2022-12-06T19:36:33.070Z,15.20
2022-12-06T19:39:04.290Z,12.55
2022-12-06T19:41:31.355Z,11.70
2022-12-06T19:44:16.975Z,13.80
2022-12-06T19:46:45.832Z,12.07
2022-12-06T19:49:14.187Z,12.35
2022-12-06T19:51:45.490Z,12.18
2022-12-06T19:54:16.354Z,13.15
2022-12-06T19:56:43.129Z,14.13
2022-12-06T19:59:13.271Z,12.15
2022-12-06T20:01:42.396Z,13.60
2022-12-06T20:04:13.311Z,13.27
2022-12-06T20:06:40.033Z,12.80
2022-12-06T20:09:06.824Z,14.55
2022-12-06T20:11:55.178Z,14.23
2022-12-06T20:14:22.987Z,13.00
2022-12-06T20:16:50.503Z,11.80
2022-12-06T20:19:18.464Z,15.35
2022-12-06T20:21:45.785Z,13.70
2022-12-06T20:24:15.405Z,12.30
2022-12-06T20:26:42.440Z,14.00
2022-12-06T20:29:10.480Z,15.70
2022-12-06T20:31:37.467Z,16.00
2022-12-06T20:34:13.099Z,18.83
2022-12-06T20:36:42.026Z,17.98
2022-12-06T20:39:15.104Z,14.70
2022-12-06T20:41:42.659Z,15.38
2022-12-06T20:44:10.099Z,18.92
2022-12-06T20:46:36.917Z,15.27
2022-12-06T20:49:05.588Z,14.73
2022-12-06T20:51:33.411Z,16.48
2022-12-06T20:54:03.501Z,16.02
2022-12-06T20:56:33.184Z,15.02
2022-12-06T20:59:01.847Z,18.70
2022-12-06T21:01:31.424Z,15.32
2022-12-06T21:03:58.844Z,15.70
2022-12-06T21:06:26.117Z,18.13
2022-12-06T21:08:53.648Z,18.10
2022-12-06T21:11:23.872Z,17.27
2022-12-06T21:13:56.043Z,17.75
2022-12-06T21:16:26.400Z,20.85
2022-12-06T21:19:01.723Z,18.60
2022-12-06T21:21:31.307Z,14.98
2022-12-06T21:24:02.712Z,17.23
2022-12-06T21:26:30.467Z,19.10
2022-12-06T21:28:57.727Z,16.80
2022-12-06T21:31:29.743Z,19.45
2022-12-06T21:33:57.579Z,16.83
2022-12-06T21:36:25.630Z,15.23
2022-12-06T21:38:53.132Z,18.05
2022-12-06T21:41:20.558Z,17.83
2022-12-06T21:43:47.862Z,18.85
2022-12-06T21:46:17.659Z,18.85
2022-12-06T21:48:45.498Z,17.30
2022-12-06T21:51:14.755Z,19.27
2022-12-06T21:53:41.694Z,16.95
2022-12-06T21:56:30.073Z,17.92
2022-12-06T21:58:59.871Z,18.00
2022-12-06T22:01:28.486Z,16.98
2022-12-06T22:03:58.237Z,19.02
2022-12-06T22:06:25.697Z,18.92
2022-12-06T22:09:01.391Z,18.23
2022-12-06T22:11:30.156Z,17.85
2022-12-06T22:13:58.899Z,17.95
2022-12-06T22:16:26.171Z,18.08
2022-12-06T22:18:55.135Z,17.58
2022-12-06T22:21:25.367Z,17.85
2022-12-06T22:26:22.012Z,18.67
2022-12-06T22:28:49.282Z,19.17
2022-12-06T22:31:23.540Z,23.92
2022-12-06T22:33:51.807Z,18.58
2022-12-06T22:36:19.936Z,19.55
2022-12-06T22:38:55.422Z,19.05
2022-12-06T22:41:23.893Z,19.23
2022-12-06T22:43:55.022Z,20.58
2022-12-06T22:46:23.193Z,20.73
2022-12-06T22:48:50.354Z,20.33
2022-12-06T22:51:26.552Z,19.23
2022-12-06T22:53:57.667Z,18.17
2022-12-06T22:56:25.595Z,20.45
2022-12-06T22:58:57.299Z,19.80
2022-12-06T23:01:27.512Z,18.33
2022-12-06T23:06:24.320Z,18.90
2022-12-06T23:08:51.743Z,16.90
2022-12-06T23:11:21.463Z,17.70
2022-12-06T23:13:48.609Z,21.02
2022-12-06T23:16:18.230Z,15.95
2022-12-06T23:18:46.154Z,18.58
2022-12-06T23:21:20.741Z,16.17
2022-12-06T23:23:49.938Z,15.25
2022-12-06T23:26:25.696Z,16.02
2022-12-06T23:28:52.688Z,15.00
2022-12-06T23:31:25.049Z,15.60
2022-12-06T23:33:57.079Z,13.85
2022-12-06T23:36:27.425Z,14.15
2022-12-06T23:38:54.205Z,15.82
2022-12-06T23:41:23.638Z,15.80
2022-12-06T23:43:51.251Z,13.97
2022-12-06T23:46:22.655Z,15.63
2022-12-06T23:48:50.505Z,13.88
2022-12-06T23:51:22.853Z,14.27
2022-12-06T23:53:52.123Z,13.10
2022-12-06T23:56:21.017Z,14.32
2022-12-06T23:58:50.308Z,12.57
